Terminal Aerodrome Forecast
Issued by NWS Cleveland, OH

Home | Current Version | Previous Version | Text Only | Print | Product List | Glossary Off
Versions: 1 2 3 4 5 6 7 8 9 10 11 12 13 14 15 16 17 18 19 20 21 22 23 24 25 26 27 28

000
FTUS41 KCLE 210500
TAFCLE
TAF
KCLE 210538Z 2106/2212 VRB03KT P6SM BKN250
     FM211000 00000KT 5SM BR SCT250
     FM211330 VRB03KT P6SM SCT250
     FM211530 36006KT P6SM BKN040
     FM212000 02006KT P6SM SCT050
     FM212300 VRB03KT P6SM SKC=

USA.gov is the U.S. government's official web portal to all federal, state and local government web resources and services.